sensor_id;sensor_type;location;lat;lon;timestamp;P1;durP1;ratioP1;P2;durP2;ratioP2
8297;SDS011;4187;42.778;23.242;2024-02-23T00:02:16;14.33;;;9.60;;
8297;SDS011;4187;42.778;23.242;2024-02-23T00:04:43;10.63;;;8.48;;
8297;SDS011;4187;42.778;23.242;2024-02-23T00:07:11;10.87;;;9.63;;
8297;SDS011;4187;42.778;23.242;2024-02-23T00:09:39;13.27;;;9.87;;
8297;SDS011;4187;42.778;23.242;2024-02-23T00:12:06;10.73;;;8.73;;
8297;SDS011;4187;42.778;23.242;2024-02-23T00:14:33;12.33;;;8.70;;
8297;SDS011;4187;42.778;23.242;2024-02-23T00:17:01;12.17;;;10.00;;
8297;SDS011;4187;42.778;23.242;2024-02-23T00:19:29;12.30;;;9.70;;
8297;SDS011;4187;42.778;23.242;2024-02-23T00:21:56;11.20;;;9.70;;
8297;SDS011;4187;42.778;23.242;2024-02-23T00:24:24;13.13;;;9.20;;
8297;SDS011;4187;42.778;23.242;2024-02-23T00:26:52;11.30;;;9.83;;
8297;SDS011;4187;42.778;23.242;2024-02-23T00:29:19;11.48;;;9.65;;
8297;SDS011;4187;42.778;23.242;2024-02-23T00:31:46;13.35;;;9.80;;
8297;SDS011;4187;42.778;23.242;2024-02-23T00:34:13;12.57;;;9.60;;
8297;SDS011;4187;42.778;23.242;2024-02-23T00:36:40;10.63;;;9.53;;
8297;SDS011;4187;42.778;23.242;2024-02-23T00:39:09;12.07;;;9.50;;
8297;SDS011;4187;42.778;23.242;2024-02-23T00:41:36;12.47;;;9.47;;
8297;SDS011;4187;42.778;23.242;2024-02-23T00:44:05;11.73;;;9.97;;
8297;SDS011;4187;42.778;23.242;2024-02-23T00:46:32;12.30;;;10.60;;
8297;SDS011;4187;42.778;23.242;2024-02-23T00:48:59;13.40;;;10.03;;
8297;SDS011;4187;42.778;23.242;2024-02-23T00:51:25;12.67;;;9.93;;
8297;SDS011;4187;42.778;23.242;2024-02-23T00:53:52;12.30;;;10.13;;
8297;SDS011;4187;42.778;23.242;2024-02-23T00:56:19;13.60;;;10.17;;
8297;SDS011;4187;42.778;23.242;2024-02-23T00:58:46;12.80;;;10.13;;
8297;SDS011;4187;42.778;23.242;2024-02-23T01:01:14;11.27;;;8.90;;
8297;SDS011;4187;42.778;23.242;2024-02-23T01:03:41;11.03;;;9.30;;
8297;SDS011;4187;42.778;23.242;2024-02-23T01:06:08;11.00;;;9.73;;
8297;SDS011;4187;42.778;23.242;2024-02-23T01:08:35;10.17;;;9.07;;
8297;SDS011;4187;42.778;23.242;2024-02-23T01:11:02;12.67;;;9.93;;
8297;SDS011;4187;42.778;23.242;2024-02-23T01:13:28;13.27;;;10.20;;
8297;SDS011;4187;42.778;23.242;2024-02-23T01:15:55;9.73;;;8.73;;
8297;SDS011;4187;42.778;23.242;2024-02-23T01:18:23;9.60;;;8.60;;
8297;SDS011;4187;42.778;23.242;2024-02-23T01:20:50;11.00;;;8.55;;
8297;SDS011;4187;42.778;23.242;2024-02-23T01:23:17;11.82;;;8.80;;
8297;SDS011;4187;42.778;23.242;2024-02-23T01:25:45;10.90;;;8.13;;
8297;SDS011;4187;42.778;23.242;2024-02-23T01:28:12;9.63;;;8.17;;
8297;SDS011;4187;42.778;23.242;2024-02-23T01:30:39;8.97;;;7.77;;
8297;SDS011;4187;42.778;23.242;2024-02-23T01:33:05;8.73;;;7.57;;
8297;SDS011;4187;42.778;23.242;2024-02-23T01:35:34;11.50;;;8.33;;
8297;SDS011;4187;42.778;23.242;2024-02-23T01:38:01;9.43;;;8.07;;
8297;SDS011;4187;42.778;23.242;2024-02-23T01:40:28;9.47;;;8.10;;
8297;SDS011;4187;42.778;23.242;2024-02-23T01:43:04;12.07;;;9.03;;
8297;SDS011;4187;42.778;23.242;2024-02-23T01:45:31;9.38;;;8.38;;
8297;SDS011;4187;42.778;23.242;2024-02-23T01:47:58;11.20;;;10.00;;
8297;SDS011;4187;42.778;23.242;2024-02-23T01:50:25;12.32;;;9.75;;
8297;SDS011;4187;42.778;23.242;2024-02-23T01:52:56;11.88;;;8.93;;
8297;SDS011;4187;42.778;23.242;2024-02-23T01:55:24;11.43;;;9.37;;
8297;SDS011;4187;42.778;23.242;2024-02-23T01:57:51;11.00;;;9.03;;
8297;SDS011;4187;42.778;23.242;2024-02-23T02:00:20;10.07;;;8.27;;
8297;SDS011;4187;42.778;23.242;2024-02-23T02:02:47;11.57;;;8.55;;
8297;SDS011;4187;42.778;23.242;2024-02-23T02:05:14;10.73;;;8.27;;
8297;SDS011;4187;42.778;23.242;2024-02-23T02:07:41;12.13;;;8.75;;
8297;SDS011;4187;42.778;23.242;2024-02-23T02:10:10;10.27;;;8.30;;
8297;SDS011;4187;42.778;23.242;2024-02-23T02:12:37;9.17;;;8.23;;
8297;SDS011;4187;42.778;23.242;2024-02-23T02:15:05;9.27;;;8.20;;
8297;SDS011;4187;42.778;23.242;2024-02-23T02:17:32;10.02;;;9.02;;
8297;SDS011;4187;42.778;23.242;2024-02-23T02:19:59;11.98;;;8.93;;
8297;SDS011;4187;42.778;23.242;2024-02-23T02:22:29;12.25;;;9.15;;
8297;SDS011;4187;42.778;23.242;2024-02-23T02:24:58;10.75;;;8.18;;
8297;SDS011;4187;42.778;23.242;2024-02-23T02:27:26;9.00;;;7.97;;
8297;SDS011;4187;42.778;23.242;2024-02-23T02:29:53;13.67;;;10.07;;
8297;SDS011;4187;42.778;23.242;2024-02-23T02:32:19;11.20;;;10.10;;
8297;SDS011;4187;42.778;23.242;2024-02-23T02:34:46;12.50;;;7.90;;
8297;SDS011;4187;42.778;23.242;2024-02-23T02:37:13;8.90;;;7.85;;
8297;SDS011;4187;42.778;23.242;2024-02-23T02:39:40;12.23;;;8.37;;
8297;SDS011;4187;42.778;23.242;2024-02-23T02:42:07;9.27;;;7.53;;
8297;SDS011;4187;42.778;23.242;2024-02-23T02:44:35;10.97;;;8.83;;
8297;SDS011;4187;42.778;23.242;2024-02-23T02:47:02;10.43;;;7.83;;
8297;SDS011;4187;42.778;23.242;2024-02-23T02:49:29;8.67;;;7.77;;
8297;SDS011;4187;42.778;23.242;2024-02-23T02:51:56;10.77;;;7.82;;
8297;SDS011;4187;42.778;23.242;2024-02-23T02:54:22;9.57;;;8.60;;
8297;SDS011;4187;42.778;23.242;2024-02-23T02:56:49;9.40;;;8.20;;
8297;SDS011;4187;42.778;23.242;2024-02-23T02:59:19;9.57;;;7.70;;
8297;SDS011;4187;42.778;23.242;2024-02-23T03:01:47;9.17;;;8.27;;
8297;SDS011;4187;42.778;23.242;2024-02-23T03:04:14;10.73;;;8.07;;
8297;SDS011;4187;42.778;23.242;2024-02-23T03:06:41;12.00;;;8.70;;
8297;SDS011;4187;42.778;23.242;2024-02-23T03:09:07;9.57;;;8.03;;
8297;SDS011;4187;42.778;23.242;2024-02-23T03:11:35;10.20;;;8.60;;
8297;SDS011;4187;42.778;23.242;2024-02-23T03:14:02;8.47;;;7.67;;
8297;SDS011;4187;42.778;23.242;2024-02-23T03:16:29;8.23;;;7.30;;
8297;SDS011;4187;42.778;23.242;2024-02-23T03:18:58;11.23;;;8.93;;
8297;SDS011;4187;42.778;23.242;2024-02-23T03:21:24;10.50;;;9.23;;
8297;SDS011;4187;42.778;23.242;2024-02-23T03:23:51;11.63;;;8.53;;
8297;SDS011;4187;42.778;23.242;2024-02-23T03:26:18;8.97;;;7.47;;
8297;SDS011;4187;42.778;23.242;2024-02-23T03:28:45;9.73;;;8.53;;
8297;SDS011;4187;42.778;23.242;2024-02-23T03:31:13;10.37;;;8.70;;
8297;SDS011;4187;42.778;23.242;2024-02-23T03:33:40;9.60;;;8.20;;
8297;SDS011;4187;42.778;23.242;2024-02-23T03:36:08;11.07;;;8.90;;
8297;SDS011;4187;42.778;23.242;2024-02-23T03:38:35;12.13;;;8.75;;
8297;SDS011;4187;42.778;23.242;2024-02-23T03:41:02;10.87;;;8.57;;
8297;SDS011;4187;42.778;23.242;2024-02-23T03:43:29;10.75;;;9.20;;
8297;SDS011;4187;42.778;23.242;2024-02-23T03:45:56;12.05;;;10.30;;
8297;SDS011;4187;42.778;23.242;2024-02-23T03:48:22;11.57;;;9.00;;
8297;SDS011;4187;42.778;23.242;2024-02-23T03:50:49;10.17;;;9.17;;
8297;SDS011;4187;42.778;23.242;2024-02-23T03:53:17;12.70;;;9.70;;
8297;SDS011;4187;42.778;23.242;2024-02-23T03:55:44;11.90;;;9.33;;
8297;SDS011;4187;42.778;23.242;2024-02-23T03:58:11;13.63;;;10.90;;
8297;SDS011;4187;42.778;23.242;2024-02-23T04:00:38;12.68;;;10.35;;
8297;SDS011;4187;42.778;23.242;2024-02-23T04:03:04;10.35;;;8.27;;
8297;SDS011;4187;42.778;23.242;2024-02-23T04:05:31;9.80;;;7.72;;
8297;SDS011;4187;42.778;23.242;2024-02-23T04:07:58;10.05;;;8.55;;
8297;SDS011;4187;42.778;23.242;2024-02-23T04:10:26;9.60;;;8.57;;
8297;SDS011;4187;42.778;23.242;2024-02-23T04:12:53;13.73;;;8.80;;
8297;SDS011;4187;42.778;23.242;2024-02-23T04:15:19;9.97;;;8.07;;
8297;SDS011;4187;42.778;23.242;2024-02-23T04:17:46;10.57;;;8.60;;
8297;SDS011;4187;42.778;23.242;2024-02-23T04:20:13;11.10;;;8.90;;
8297;SDS011;4187;42.778;23.242;2024-02-23T04:22:40;9.93;;;8.57;;
8297;SDS011;4187;42.778;23.242;2024-02-23T04:25:07;11.05;;;8.27;;
8297;SDS011;4187;42.778;23.242;2024-02-23T04:27:36;10.70;;;8.70;;
8297;SDS011;4187;42.778;23.242;2024-02-23T04:30:03;11.00;;;8.50;;
8297;SDS011;4187;42.778;23.242;2024-02-23T04:32:31;9.97;;;8.67;;
8297;SDS011;4187;42.778;23.242;2024-02-23T04:34:57;10.70;;;7.93;;
8297;SDS011;4187;42.778;23.242;2024-02-23T04:37:24;11.23;;;8.43;;
8297;SDS011;4187;42.778;23.242;2024-02-23T04:39:51;10.23;;;8.83;;
8297;SDS011;4187;42.778;23.242;2024-02-23T04:42:18;10.95;;;8.85;;
8297;SDS011;4187;42.778;23.242;2024-02-23T04:44:46;9.15;;;7.53;;
8297;SDS011;4187;42.778;23.242;2024-02-23T04:47:14;8.97;;;8.03;;
8297;SDS011;4187;42.778;23.242;2024-02-23T04:49:41;9.35;;;7.68;;
8297;SDS011;4187;42.778;23.242;2024-02-23T04:52:08;13.93;;;8.53;;
8297;SDS011;4187;42.778;23.242;2024-02-23T04:54:34;9.20;;;8.00;;
8297;SDS011;4187;42.778;23.242;2024-02-23T04:57:01;9.67;;;8.67;;
8297;SDS011;4187;42.778;23.242;2024-02-23T04:59:28;10.10;;;8.40;;
8297;SDS011;4187;42.778;23.242;2024-02-23T05:01:58;11.00;;;8.50;;
8297;SDS011;4187;42.778;23.242;2024-02-23T05:04:25;11.70;;;8.40;;
8297;SDS011;4187;42.778;23.242;2024-02-23T05:06:53;9.73;;;8.53;;
8297;SDS011;4187;42.778;23.242;2024-02-23T05:09:20;12.73;;;9.20;;
8297;SDS011;4187;42.778;23.242;2024-02-23T05:11:47;11.83;;;8.37;;
8297;SDS011;4187;42.778;23.242;2024-02-23T05:14:13;13.00;;;8.20;;
8297;SDS011;4187;42.778;23.242;2024-02-23T05:16:40;10.43;;;8.47;;
8297;SDS011;4187;42.778;23.242;2024-02-23T05:19:08;13.03;;;9.20;;
8297;SDS011;4187;42.778;23.242;2024-02-23T05:21:35;13.60;;;8.47;;
8297;SDS011;4187;42.778;23.242;2024-02-23T05:24:02;11.67;;;9.77;;
8297;SDS011;4187;42.778;23.242;2024-02-23T05:26:31;13.77;;;9.87;;
8297;SDS011;4187;42.778;23.242;2024-02-23T05:28:57;17.27;;;11.40;;
8297;SDS011;4187;42.778;23.242;2024-02-23T05:31:42;12.30;;;9.47;;
8297;SDS011;4187;42.778;23.242;2024-02-23T05:34:12;14.70;;;9.27;;
8297;SDS011;4187;42.778;23.242;2024-02-23T05:36:38;12.30;;;9.47;;
8297;SDS011;4187;42.778;23.242;2024-02-23T05:39:09;12.97;;;10.20;;
8297;SDS011;4187;42.778;23.242;2024-02-23T05:41:35;13.77;;;9.50;;
8297;SDS011;4187;42.778;23.242;2024-02-23T05:44:03;13.13;;;10.80;;
8297;SDS011;4187;42.778;23.242;2024-02-23T05:46:31;16.87;;;10.43;;
8297;SDS011;4187;42.778;23.242;2024-02-23T05:48:58;17.23;;;12.07;;
8297;SDS011;4187;42.778;23.242;2024-02-23T05:51:27;12.33;;;10.20;;
8297;SDS011;4187;42.778;23.242;2024-02-23T05:53:55;12.77;;;10.67;;
8297;SDS011;4187;42.778;23.242;2024-02-23T05:56:22;12.23;;;10.30;;
8297;SDS011;4187;42.778;23.242;2024-02-23T05:58:49;11.83;;;10.43;;
8297;SDS011;4187;42.778;23.242;2024-02-23T06:01:16;13.87;;;11.00;;
8297;SDS011;4187;42.778;23.242;2024-02-23T06:03:43;12.73;;;10.40;;
8297;SDS011;4187;42.778;23.242;2024-02-23T06:06:10;15.57;;;10.87;;
8297;SDS011;4187;42.778;23.242;2024-02-23T06:08:39;23.38;;;15.73;;
8297;SDS011;4187;42.778;23.242;2024-02-23T06:11:05;15.30;;;11.70;;
8297;SDS011;4187;42.778;23.242;2024-02-23T06:13:32;19.98;;;14.85;;
8297;SDS011;4187;42.778;23.242;2024-02-23T06:15:59;32.13;;;21.05;;
8297;SDS011;4187;42.778;23.242;2024-02-23T06:18:26;30.30;;;17.90;;
8297;SDS011;4187;42.778;23.242;2024-02-23T06:20:53;39.88;;;24.35;;
8297;SDS011;4187;42.778;23.242;2024-02-23T06:23:19;32.80;;;22.05;;
8297;SDS011;4187;42.778;23.242;2024-02-23T06:25:48;32.33;;;19.90;;
8297;SDS011;4187;42.778;23.242;2024-02-23T06:28:15;34.25;;;21.23;;
8297;SDS011;4187;42.778;23.242;2024-02-23T06:30:42;36.17;;;21.40;;
8297;SDS011;4187;42.778;23.242;2024-02-23T06:33:09;34.10;;;21.92;;
8297;SDS011;4187;42.778;23.242;2024-02-23T06:35:35;27.52;;;19.30;;
8297;SDS011;4187;42.778;23.242;2024-02-23T06:38:02;24.50;;;17.63;;
8297;SDS011;4187;42.778;23.242;2024-02-23T06:40:30;26.98;;;16.73;;
8297;SDS011;4187;42.778;23.242;2024-02-23T06:42:59;20.63;;;16.38;;
8297;SDS011;4187;42.778;23.242;2024-02-23T06:45:25;19.27;;;15.85;;
8297;SDS011;4187;42.778;23.242;2024-02-23T06:47:52;24.17;;;13.57;;
8297;SDS011;4187;42.778;23.242;2024-02-23T06:50:19;19.65;;;14.35;;
8297;SDS011;4187;42.778;23.242;2024-02-23T06:52:46;14.90;;;13.20;;
8297;SDS011;4187;42.778;23.242;2024-02-23T06:55:14;13.50;;;12.07;;
8297;SDS011;4187;42.778;23.242;2024-02-23T06:57:41;14.10;;;12.00;;
8297;SDS011;4187;42.778;23.242;2024-02-23T07:00:10;16.40;;;12.05;;
8297;SDS011;4187;42.778;23.242;2024-02-23T07:02:37;16.33;;;14.60;;
8297;SDS011;4187;42.778;23.242;2024-02-23T07:05:04;16.73;;;12.38;;
8297;SDS011;4187;42.778;23.242;2024-02-23T07:07:31;17.70;;;14.10;;
8297;SDS011;4187;42.778;23.242;2024-02-23T07:09:59;18.75;;;12.90;;
8297;SDS011;4187;42.778;23.242;2024-02-23T07:12:25;15.52;;;12.65;;
8297;SDS011;4187;42.778;23.242;2024-02-23T07:14:54;15.38;;;12.23;;
8297;SDS011;4187;42.778;23.242;2024-02-23T07:17:22;16.13;;;13.73;;
8297;SDS011;4187;42.778;23.242;2024-02-23T07:19:49;19.45;;;14.27;;
8297;SDS011;4187;42.778;23.242;2024-02-23T07:22:18;19.27;;;13.65;;
8297;SDS011;4187;42.778;23.242;2024-02-23T07:24:45;18.35;;;13.52;;
8297;SDS011;4187;42.778;23.242;2024-02-23T07:27:12;18.13;;;12.98;;
8297;SDS011;4187;42.778;23.242;2024-02-23T07:29:39;16.63;;;12.70;;
8297;SDS011;4187;42.778;23.242;2024-02-23T07:32:06;15.73;;;12.02;;
8297;SDS011;4187;42.778;23.242;2024-02-23T07:34:34;13.48;;;11.60;;
8297;SDS011;4187;42.778;23.242;2024-02-23T07:37:01;12.60;;;8.68;;
8297;SDS011;4187;42.778;23.242;2024-02-23T07:39:27;11.07;;;9.52;;
8297;SDS011;4187;42.778;23.242;2024-02-23T07:41:54;9.75;;;8.48;;
8297;SDS011;4187;42.778;23.242;2024-02-23T07:44:21;9.10;;;7.68;;
8297;SDS011;4187;42.778;23.242;2024-02-23T07:46:50;7.85;;;6.82;;
8297;SDS011;4187;42.778;23.242;2024-02-23T07:49:17;8.02;;;7.22;;
8297;SDS011;4187;42.778;23.242;2024-02-23T07:51:46;9.73;;;7.88;;
8297;SDS011;4187;42.778;23.242;2024-02-23T07:54:15;9.57;;;7.35;;
8297;SDS011;4187;42.778;23.242;2024-02-23T07:56:42;10.57;;;6.30;;
8297;SDS011;4187;42.778;23.242;2024-02-23T07:59:09;7.30;;;6.60;;
8297;SDS011;4187;42.778;23.242;2024-02-23T08:01:36;8.32;;;6.80;;
8297;SDS011;4187;42.778;23.242;2024-02-23T08:04:03;9.30;;;6.95;;
8297;SDS011;4187;42.778;23.242;2024-02-23T08:06:30;9.77;;;6.80;;
8297;SDS011;4187;42.778;23.242;2024-02-23T08:08:58;6.90;;;6.20;;
8297;SDS011;4187;42.778;23.242;2024-02-23T08:11:25;10.13;;;6.45;;
8297;SDS011;4187;42.778;23.242;2024-02-23T08:13:51;8.27;;;6.20;;
8297;SDS011;4187;42.778;23.242;2024-02-23T08:16:18;7.05;;;6.35;;
8297;SDS011;4187;42.778;23.242;2024-02-23T08:18:45;7.65;;;5.93;;
8297;SDS011;4187;42.778;23.242;2024-02-23T08:21:14;10.73;;;6.07;;
8297;SDS011;4187;42.778;23.242;2024-02-23T08:23:44;6.68;;;5.93;;
8297;SDS011;4187;42.778;23.242;2024-02-23T08:26:13;7.40;;;5.72;;
8297;SDS011;4187;42.778;23.242;2024-02-23T08:28:40;7.05;;;5.97;;
8297;SDS011;4187;42.778;23.242;2024-02-23T08:31:07;6.68;;;5.93;;
8297;SDS011;4187;42.778;23.242;2024-02-23T08:33:33;8.05;;;6.25;;
8297;SDS011;4187;42.778;23.242;2024-02-23T08:36:00;9.43;;;8.23;;
8297;SDS011;4187;42.778;23.242;2024-02-23T08:38:30;7.50;;;6.30;;
8297;SDS011;4187;42.778;23.242;2024-02-23T08:40:57;8.73;;;5.85;;
8297;SDS011;4187;42.778;23.242;2024-02-23T08:43:28;6.25;;;5.45;;
8297;SDS011;4187;42.778;23.242;2024-02-23T08:45:55;8.13;;;5.63;;
8297;SDS011;4187;42.778;23.242;2024-02-23T08:48:22;9.60;;;7.47;;
8297;SDS011;4187;42.778;23.242;2024-02-23T08:50:49;6.68;;;5.95;;
8297;SDS011;4187;42.778;23.242;2024-02-23T08:53:16;6.72;;;5.97;;
8297;SDS011;4187;42.778;23.242;2024-02-23T08:55:43;7.68;;;5.72;;
8297;SDS011;4187;42.778;23.242;2024-02-23T08:58:09;8.88;;;5.57;;
8297;SDS011;4187;42.778;23.242;2024-02-23T09:00:38;5.53;;;5.03;;
8297;SDS011;4187;42.778;23.242;2024-02-23T09:03:04;8.38;;;4.85;;
8297;SDS011;4187;42.778;23.242;2024-02-23T09:05:31;7.75;;;4.82;;
8297;SDS011;4187;42.778;23.242;2024-02-23T09:07:58;5.00;;;4.47;;
8297;SDS011;4187;42.778;23.242;2024-02-23T09:10:25;7.00;;;4.50;;
8297;SDS011;4187;42.778;23.242;2024-02-23T09:12:52;6.13;;;4.57;;
8297;SDS011;4187;42.778;23.242;2024-02-23T09:15:18;5.18;;;4.68;;
8297;SDS011;4187;42.778;23.242;2024-02-23T09:17:46;8.40;;;4.93;;
8297;SDS011;4187;42.778;23.242;2024-02-23T09:20:13;6.05;;;3.45;;
8297;SDS011;4187;42.778;23.242;2024-02-23T09:22:40;5.22;;;3.03;;
8297;SDS011;4187;42.778;23.242;2024-02-23T09:25:07;4.65;;;2.75;;
8297;SDS011;4187;42.778;23.242;2024-02-23T09:27:34;3.17;;;2.63;;
8297;SDS011;4187;42.778;23.242;2024-02-23T09:30:08;4.70;;;2.65;;
8297;SDS011;4187;42.778;23.242;2024-02-23T09:32:36;2.28;;;2.08;;
8297;SDS011;4187;42.778;23.242;2024-02-23T09:35:04;3.95;;;2.95;;
8297;SDS011;4187;42.778;23.242;2024-02-23T09:37:34;2.80;;;2.58;;
8297;SDS011;4187;42.778;23.242;2024-02-23T09:40:01;3.17;;;2.85;;
8297;SDS011;4187;42.778;23.242;2024-02-23T09:42:28;3.10;;;2.65;;
8297;SDS011;4187;42.778;23.242;2024-02-23T09:44:58;5.13;;;3.65;;
8297;SDS011;4187;42.778;23.242;2024-02-23T09:47:26;3.58;;;2.50;;
8297;SDS011;4187;42.778;23.242;2024-02-23T09:49:53;3.35;;;2.60;;
8297;SDS011;4187;42.778;23.242;2024-02-23T09:52:22;5.55;;;2.90;;
8297;SDS011;4187;42.778;23.242;2024-02-23T09:54:49;4.15;;;2.50;;
8297;SDS011;4187;42.778;23.242;2024-02-23T09:57:16;5.35;;;3.03;;
8297;SDS011;4187;42.778;23.242;2024-02-23T09:59:44;3.17;;;2.83;;
8297;SDS011;4187;42.778;23.242;2024-02-23T10:02:13;3.03;;;2.40;;
8297;SDS011;4187;42.778;23.242;2024-02-23T10:04:41;2.72;;;2.47;;
8297;SDS011;4187;42.778;23.242;2024-02-23T10:07:09;4.55;;;2.58;;
8297;SDS011;4187;42.778;23.242;2024-02-23T10:09:38;4.28;;;2.47;;
8297;SDS011;4187;42.778;23.242;2024-02-23T10:12:05;5.22;;;2.97;;
8297;SDS011;4187;42.778;23.242;2024-02-23T10:14:33;3.28;;;2.05;;
8297;SDS011;4187;42.778;23.242;2024-02-23T10:17:00;3.45;;;2.40;;
8297;SDS011;4187;42.778;23.242;2024-02-23T10:19:27;3.92;;;2.30;;
8297;SDS011;4187;42.778;23.242;2024-02-23T10:21:55;2.50;;;2.30;;
8297;SDS011;4187;42.778;23.242;2024-02-23T10:24:22;3.38;;;2.67;;
8297;SDS011;4187;42.778;23.242;2024-02-23T10:26:51;5.28;;;2.80;;
8297;SDS011;4187;42.778;23.242;2024-02-23T10:29:18;2.83;;;2.40;;
8297;SDS011;4187;42.778;23.242;2024-02-23T10:31:46;2.53;;;2.28;;
8297;SDS011;4187;42.778;23.242;2024-02-23T10:34:14;3.60;;;2.42;;
8297;SDS011;4187;42.778;23.242;2024-02-23T10:36:45;2.88;;;2.25;;
8297;SDS011;4187;42.778;23.242;2024-02-23T10:39:15;2.72;;;2.53;;
8297;SDS011;4187;42.778;23.242;2024-02-23T10:41:44;3.47;;;2.20;;
8297;SDS011;4187;42.778;23.242;2024-02-23T10:44:15;2.65;;;2.38;;
8297;SDS011;4187;42.778;23.242;2024-02-23T10:46:43;3.03;;;2.20;;
8297;SDS011;4187;42.778;23.242;2024-02-23T10:49:11;3.03;;;2.47;;
8297;SDS011;4187;42.778;23.242;2024-02-23T10:51:41;5.82;;;2.25;;
8297;SDS011;4187;42.778;23.242;2024-02-23T10:54:09;3.78;;;2.53;;
8297;SDS011;4187;42.778;23.242;2024-02-23T10:56:39;4.45;;;2.90;;
8297;SDS011;4187;42.778;23.242;2024-02-23T10:59:06;3.47;;;2.20;;
8297;SDS011;4187;42.778;23.242;2024-02-23T11:01:36;3.25;;;2.53;;
8297;SDS011;4187;42.778;23.242;2024-02-23T11:04:04;3.55;;;2.20;;
8297;SDS011;4187;42.778;23.242;2024-02-23T11:06:33;2.95;;;2.38;;
8297;SDS011;4187;42.778;23.242;2024-02-23T11:09:06;3.70;;;2.50;;
8297;SDS011;4187;42.778;23.242;2024-02-23T11:11:34;4.30;;;2.72;;
8297;SDS011;4187;42.778;23.242;2024-02-23T11:14:03;3.78;;;2.38;;
8297;SDS011;4187;42.778;23.242;2024-02-23T11:16:38;2.88;;;2.50;;
8297;SDS011;4187;42.778;23.242;2024-02-23T11:19:06;2.45;;;2.20;;
8297;SDS011;4187;42.778;23.242;2024-02-23T11:21:35;3.78;;;2.97;;
8297;SDS011;4187;42.778;23.242;2024-02-23T11:24:03;3.63;;;2.50;;
8297;SDS011;4187;42.778;23.242;2024-02-23T11:26:31;3.08;;;2.40;;
8297;SDS011;4187;42.778;23.242;2024-02-23T11:28:58;3.53;;;2.13;;
8297;SDS011;4187;42.778;23.242;2024-02-23T11:31:28;4.13;;;2.95;;
8297;SDS011;4187;42.778;23.242;2024-02-23T11:33:57;2.78;;;2.00;;
8297;SDS011;4187;42.778;23.242;2024-02-23T11:36:27;2.45;;;2.10;;
8297;SDS011;4187;42.778;23.242;2024-02-23T11:38:56;3.05;;;2.20;;
8297;SDS011;4187;42.778;23.242;2024-02-23T11:41:24;2.45;;;2.20;;
8297;SDS011;4187;42.778;23.242;2024-02-23T11:43:52;2.40;;;1.95;;
8297;SDS011;4187;42.778;23.242;2024-02-23T11:46:20;2.72;;;2.03;;
8297;SDS011;4187;42.778;23.242;2024-02-23T11:48:48;2.20;;;2.00;;
8297;SDS011;4187;42.778;23.242;2024-02-23T11:51:20;3.20;;;2.03;;
8297;SDS011;4187;42.778;23.242;2024-02-23T11:53:48;3.63;;;2.35;;
8297;SDS011;4187;42.778;23.242;2024-02-23T11:56:15;2.33;;;1.90;;
8297;SDS011;4187;42.778;23.242;2024-02-23T11:58:43;2.30;;;2.13;;
8297;SDS011;4187;42.778;23.242;2024-02-23T12:01:10;3.42;;;2.30;;
8297;SDS011;4187;42.778;23.242;2024-02-23T12:03:37;2.22;;;1.88;;
8297;SDS011;4187;42.778;23.242;2024-02-23T12:06:04;2.92;;;2.10;;
8297;SDS011;4187;42.778;23.242;2024-02-23T12:08:34;3.28;;;2.22;;
8297;SDS011;4187;42.778;23.242;2024-02-23T12:11:04;2.70;;;1.80;;
8297;SDS011;4187;42.778;23.242;2024-02-23T12:13:32;2.30;;;2.00;;
8297;SDS011;4187;42.778;23.242;2024-02-23T12:15:59;2.38;;;1.90;;
8297;SDS011;4187;42.778;23.242;2024-02-23T12:18:27;3.13;;;1.92;;
8297;SDS011;4187;42.778;23.242;2024-02-23T12:20:58;2.40;;;1.90;;
8297;SDS011;4187;42.778;23.242;2024-02-23T12:23:26;3.10;;;2.00;;
8297;SDS011;4187;42.778;23.242;2024-02-23T12:25:54;3.13;;;2.17;;
8297;SDS011;4187;42.778;23.242;2024-02-23T12:28:26;3.13;;;2.28;;
8297;SDS011;4187;42.778;23.242;2024-02-23T12:30:58;3.78;;;2.70;;
8297;SDS011;4187;42.778;23.242;2024-02-23T12:33:26;2.72;;;1.92;;
8297;SDS011;4187;42.778;23.242;2024-02-23T12:35:54;2.90;;;2.00;;
8297;SDS011;4187;42.778;23.242;2024-02-23T12:38:21;2.33;;;1.73;;
8297;SDS011;4187;42.778;23.242;2024-02-23T12:40:48;3.38;;;1.90;;
8297;SDS011;4187;42.778;23.242;2024-02-23T12:43:19;2.20;;;2.00;;
8297;SDS011;4187;42.778;23.242;2024-02-23T12:45:46;3.67;;;2.53;;
8297;SDS011;4187;42.778;23.242;2024-02-23T12:48:15;2.75;;;2.20;;
8297;SDS011;4187;42.778;23.242;2024-02-23T12:50:42;4.72;;;2.80;;
8297;SDS011;4187;42.778;23.242;2024-02-23T12:53:09;2.65;;;2.33;;
8297;SDS011;4187;42.778;23.242;2024-02-23T12:55:56;1.88;;;1.70;;
8297;SDS011;4187;42.778;23.242;2024-02-23T12:58:24;3.72;;;2.47;;
8297;SDS011;4187;42.778;23.242;2024-02-23T13:00:51;2.10;;;1.80;;
8297;SDS011;4187;42.778;23.242;2024-02-23T13:03:18;5.55;;;2.40;;
8297;SDS011;4187;42.778;23.242;2024-02-23T13:05:45;2.40;;;1.95;;
8297;SDS011;4187;42.778;23.242;2024-02-23T13:08:13;2.55;;;2.30;;
8297;SDS011;4187;42.778;23.242;2024-02-23T13:10:40;2.65;;;1.70;;
8297;SDS011;4187;42.778;23.242;2024-02-23T13:13:11;1.60;;;1.50;;
8297;SDS011;4187;42.778;23.242;2024-02-23T13:15:41;1.90;;;1.70;;
8297;SDS011;4187;42.778;23.242;2024-02-23T13:18:08;2.70;;;2.10;;
8297;SDS011;4187;42.778;23.242;2024-02-23T13:20:35;2.92;;;2.05;;
8297;SDS011;4187;42.778;23.242;2024-02-23T13:23:02;4.40;;;1.98;;
8297;SDS011;4187;42.778;23.242;2024-02-23T13:25:29;3.17;;;1.50;;
8297;SDS011;4187;42.778;23.242;2024-02-23T13:27:55;2.95;;;2.03;;
8297;SDS011;4187;42.778;23.242;2024-02-23T13:30:22;4.97;;;2.42;;
8297;SDS011;4187;42.778;23.242;2024-02-23T13:32:51;1.83;;;1.63;;
8297;SDS011;4187;42.778;23.242;2024-02-23T13:35:18;2.03;;;1.77;;
8297;SDS011;4187;42.778;23.242;2024-02-23T13:37:45;5.07;;;1.75;;
8297;SDS011;4187;42.778;23.242;2024-02-23T13:40:12;1.95;;;1.45;;
8297;SDS011;4187;42.778;23.242;2024-02-23T13:42:39;1.80;;;1.67;;
8297;SDS011;4187;42.778;23.242;2024-02-23T13:45:06;2.92;;;1.35;;
8297;SDS011;4187;42.778;23.242;2024-02-23T13:47:34;2.60;;;1.77;;
8297;SDS011;4187;42.778;23.242;2024-02-23T13:50:03;1.70;;;1.60;;
8297;SDS011;4187;42.778;23.242;2024-02-23T13:52:31;3.10;;;2.00;;
8297;SDS011;4187;42.778;23.242;2024-02-23T13:54:59;2.08;;;1.30;;
8297;SDS011;4187;42.778;23.242;2024-02-23T13:57:26;2.60;;;1.58;;
8297;SDS011;4187;42.778;23.242;2024-02-23T13:59:53;4.07;;;2.10;;
8297;SDS011;4187;42.778;23.242;2024-02-23T14:02:24;5.80;;;2.35;;
8297;SDS011;4187;42.778;23.242;2024-02-23T14:04:55;1.92;;;1.70;;
8297;SDS011;4187;42.778;23.242;2024-02-23T14:07:29;1.50;;;1.40;;
8297;SDS011;4187;42.778;23.242;2024-02-23T14:09:56;2.30;;;1.73;;
8297;SDS011;4187;42.778;23.242;2024-02-23T14:12:23;3.17;;;2.88;;
8297;SDS011;4187;42.778;23.242;2024-02-23T14:14:50;3.45;;;1.80;;
8297;SDS011;4187;42.778;23.242;2024-02-23T14:17:16;1.70;;;1.50;;
8297;SDS011;4187;42.778;23.242;2024-02-23T14:19:45;1.60;;;1.50;;
8297;SDS011;4187;42.778;23.242;2024-02-23T14:22:12;1.80;;;1.48;;
8297;SDS011;4187;42.778;23.242;2024-02-23T14:24:41;4.70;;;3.25;;
8297;SDS011;4187;42.778;23.242;2024-02-23T14:27:07;3.65;;;2.95;;
8297;SDS011;4187;42.778;23.242;2024-02-23T14:29:34;3.55;;;2.72;;
8297;SDS011;4187;42.778;23.242;2024-02-23T14:32:01;3.60;;;2.97;;
8297;SDS011;4187;42.778;23.242;2024-02-23T14:34:29;3.03;;;2.28;;
8297;SDS011;4187;42.778;23.242;2024-02-23T14:36:58;3.05;;;2.20;;
8297;SDS011;4187;42.778;23.242;2024-02-23T14:39:25;3.85;;;2.13;;
8297;SDS011;4187;42.778;23.242;2024-02-23T14:41:53;4.13;;;2.15;;
8297;SDS011;4187;42.778;23.242;2024-02-23T14:44:20;2.45;;;2.05;;
8297;SDS011;4187;42.778;23.242;2024-02-23T14:46:47;2.45;;;1.80;;
8297;SDS011;4187;42.778;23.242;2024-02-23T14:49:14;2.05;;;1.85;;
8297;SDS011;4187;42.778;23.242;2024-02-23T14:51:40;2.00;;;1.80;;
8297;SDS011;4187;42.778;23.242;2024-02-23T14:54:08;3.35;;;2.45;;
8297;SDS011;4187;42.778;23.242;2024-02-23T14:56:34;2.53;;;1.85;;